Aérodrome :







RETROUVEZ-NOUS SUR...

 
LOGIN :

S'inscrire | Disclaimer

   EN    FR    IT 

 









Légende :    VFR   VFR Marginal   IFR   IFR Intensif   IFR Très Intensif
Visi : 
Plafond : 
>= 8 km
>= 3000ft
5 à 8 km
1000 à 3000 ft
1500m à 5 km
500 à 1000 ft
800 à 1500m
200 à 500 ft
< 800m
< 200 ft
Symboles :   Orages  Brouillard  Fortes neiges  Fortes précipitations  Vent > 20 kt






- Altitude de l'aérodrome : 1709 ft
- Code IATA : YKL


CYKL - Schefferville

DERNIER METAR :
  • 150900Z AUTO 09004KT 060V140 3/4SM -SN VV010 M11/M12 A2934 RMK SLP985

METARs EXPIRÉS :
  • 150832Z AUTO 08004KT 050V110 5/8SM -SN VV010 M12/M13 A2937 RMK PRESFR SLP997
  • 150800Z AUTO 08005KT 3/4SM -SN VV011 M13/M14 A2942 RMK PRESFR SLP015
  • 150712Z AUTO 04003KT 020V090 1SM -SN OVC017 M13/M15 A2949 RMK PRESFR SLP038
  • 150700Z AUTO 07004KT 020V090 1 1/4SM -SN OVC017 M13/M15 A2950 RMK PRESFR SLP044

TAF TAF CYKL
Valide du 15 à 08h jusqu'au 15 à 20h UTC


150738Z 1508/1520 VRB03KT 3/4SM -SN BLSN VV006
TEMPO 1508/1520 2SM -SN OVC010
BECMG 1510/1512 10012G22KT RMK FCST BASED ON AUTO OBS. NXT FCST BY 151400Z



MET'MAP, la Météo Aéronautique d'un coup d'oeil ! - Copyright ORBIFLY Décembre 2007 - Disclaimer

ORBIFLY MET'MAP TEAM :

Programmation & Développement : Alexandra Zaïnal
Sur une idée originale de : Baudouin d'Aumeries
Assistance à la programmation : Marc-Olivier Méhu
Soutien technique & logistique : Manuel Goepfert

Contact : metmap@orbifly.com




SOURCES & CREDITS :

   NOAA